sensor_id;sensor_type;location;lat;lon;timestamp;temperature;humidity
64869;DHT22;51349;52.424;10.840;2023-02-24T00:01:59;3.90;99.90
64869;DHT22;51349;52.424;10.840;2023-02-24T00:07:00;3.80;99.90
64869;DHT22;51349;52.424;10.840;2023-02-24T00:12:05;3.70;99.90
64869;DHT22;51349;52.424;10.840;2023-02-24T00:17:09;3.60;99.90
64869;DHT22;51349;52.424;10.840;2023-02-24T00:22:10;3.70;99.90
64869;DHT22;51349;52.424;10.840;2023-02-24T00:27:10;3.70;99.90
64869;DHT22;51349;52.424;10.840;2023-02-24T00:32:11;3.70;99.90
64869;DHT22;51349;52.424;10.840;2023-02-24T00:37:13;3.60;99.90
64869;DHT22;51349;52.424;10.840;2023-02-24T00:42:15;3.50;99.90
64869;DHT22;51349;52.424;10.840;2023-02-24T00:47:16;3.40;99.90
64869;DHT22;51349;52.424;10.840;2023-02-24T00:52:20;3.40;99.90
64869;DHT22;51349;52.424;10.840;2023-02-24T00:57:20;3.40;99.90
64869;DHT22;51349;52.424;10.840;2023-02-24T01:02:21;3.30;99.90
64869;DHT22;51349;52.424;10.840;2023-02-24T01:07:22;3.30;99.90
64869;DHT22;51349;52.424;10.840;2023-02-24T01:12:22;3.30;99.90
64869;DHT22;51349;52.424;10.840;2023-02-24T01:17:40;3.30;99.90
64869;DHT22;51349;52.424;10.840;2023-02-24T01:22:50;3.20;99.90
64869;DHT22;51349;52.424;10.840;2023-02-24T01:27:52;3.10;99.90
64869;DHT22;51349;52.424;10.840;2023-02-24T01:32:53;3.00;99.90
64869;DHT22;51349;52.424;10.840;2023-02-24T01:37:54;3.00;99.90
64869;DHT22;51349;52.424;10.840;2023-02-24T01:42:54;3.00;99.90
64869;DHT22;51349;52.424;10.840;2023-02-24T01:47:59;3.00;99.90
64869;DHT22;51349;52.424;10.840;2023-02-24T01:53:01;3.00;99.90
64869;DHT22;51349;52.424;10.840;2023-02-24T01:58:08;3.10;99.90
64869;DHT22;51349;52.424;10.840;2023-02-24T02:08:20;3.10;99.90
64869;DHT22;51349;52.424;10.840;2023-02-24T02:13:24;3.10;99.90
64869;DHT22;51349;52.424;10.840;2023-02-24T02:34:54;3.10;99.90
64869;DHT22;51349;52.424;10.840;2023-02-24T02:39:31;3.10;99.90
64869;DHT22;51349;52.424;10.840;2023-02-24T02:44:43;3.20;99.90
64869;DHT22;51349;52.424;10.840;2023-02-24T02:49:54;3.20;99.90
64869;DHT22;51349;52.424;10.840;2023-02-24T02:55:00;3.20;99.90
64869;DHT22;51349;52.424;10.840;2023-02-24T03:00:20;3.20;99.90
64869;DHT22;51349;52.424;10.840;2023-02-24T03:05:56;3.20;99.90
64869;DHT22;51349;52.424;10.840;2023-02-24T03:11:00;3.20;99.90
64869;DHT22;51349;52.424;10.840;2023-02-24T03:16:03;3.20;99.90
64869;DHT22;51349;52.424;10.840;2023-02-24T03:21:12;3.20;99.90
64869;DHT22;51349;52.424;10.840;2023-02-24T03:26:20;3.20;99.90
64869;DHT22;51349;52.424;10.840;2023-02-24T03:31:48;3.20;99.90
64869;DHT22;51349;52.424;10.840;2023-02-24T03:36:50;3.20;99.90
64869;DHT22;51349;52.424;10.840;2023-02-24T03:41:59;3.20;99.90
64869;DHT22;51349;52.424;10.840;2023-02-24T03:47:02;3.20;99.90
64869;DHT22;51349;52.424;10.840;2023-02-24T03:57:22;3.20;99.90
64869;DHT22;51349;52.424;10.840;2023-02-24T04:02:30;3.20;99.90
64869;DHT22;51349;52.424;10.840;2023-02-24T04:07:58;3.10;99.90
64869;DHT22;51349;52.424;10.840;2023-02-24T04:13:08;3.10;99.90
64869;DHT22;51349;52.424;10.840;2023-02-24T04:18:24;3.10;99.90
64869;DHT22;51349;52.424;10.840;2023-02-24T04:23:31;3.10;99.90
64869;DHT22;51349;52.424;10.840;2023-02-24T04:28:34;3.10;99.90
64869;DHT22;51349;52.424;10.840;2023-02-24T04:33:35;3.10;99.90
64869;DHT22;51349;52.424;10.840;2023-02-24T04:38:38;3.10;99.90
64869;DHT22;51349;52.424;10.840;2023-02-24T04:43:39;3.10;99.90
64869;DHT22;51349;52.424;10.840;2023-02-24T04:48:40;3.10;99.90
64869;DHT22;51349;52.424;10.840;2023-02-24T04:53:40;3.10;99.90
64869;DHT22;51349;52.424;10.840;2023-02-24T04:58:41;3.10;99.90
64869;DHT22;51349;52.424;10.840;2023-02-24T05:03:44;3.00;99.90
64869;DHT22;51349;52.424;10.840;2023-02-24T05:08:45;3.00;99.90
64869;DHT22;51349;52.424;10.840;2023-02-24T05:13:45;3.00;99.90
64869;DHT22;51349;52.424;10.840;2023-02-24T05:18:46;3.10;99.90
64869;DHT22;51349;52.424;10.840;2023-02-24T05:23:47;3.00;99.90
64869;DHT22;51349;52.424;10.840;2023-02-24T05:28:52;3.10;99.90
64869;DHT22;51349;52.424;10.840;2023-02-24T05:33:59;3.10;99.90
64869;DHT22;51349;52.424;10.840;2023-02-24T05:39:02;3.10;99.90
64869;DHT22;51349;52.424;10.840;2023-02-24T05:44:11;3.10;99.90
64869;DHT22;51349;52.424;10.840;2023-02-24T05:49:18;3.10;99.90
64869;DHT22;51349;52.424;10.840;2023-02-24T05:54:31;3.00;99.90
64869;DHT22;51349;52.424;10.840;2023-02-24T05:59:32;3.00;99.90
64869;DHT22;51349;52.424;10.840;2023-02-24T06:04:34;3.00;99.90
64869;DHT22;51349;52.424;10.840;2023-02-24T06:09:46;3.00;99.90
64869;DHT22;51349;52.424;10.840;2023-02-24T06:14:49;3.00;99.90
64869;DHT22;51349;52.424;10.840;2023-02-24T06:19:51;3.00;99.90
64869;DHT22;51349;52.424;10.840;2023-02-24T06:24:53;3.00;99.90
64869;DHT22;51349;52.424;10.840;2023-02-24T06:29:54;2.90;99.90
64869;DHT22;51349;52.424;10.840;2023-02-24T06:34:54;2.90;99.90
64869;DHT22;51349;52.424;10.840;2023-02-24T06:39:56;2.90;99.90
64869;DHT22;51349;52.424;10.840;2023-02-24T06:44:57;2.90;99.90
64869;DHT22;51349;52.424;10.840;2023-02-24T06:49:59;2.90;99.90
64869;DHT22;51349;52.424;10.840;2023-02-24T06:54:59;3.00;99.90
64869;DHT22;51349;52.424;10.840;2023-02-24T07:00:00;3.00;99.90
64869;DHT22;51349;52.424;10.840;2023-02-24T07:05:16;3.00;99.90
64869;DHT22;51349;52.424;10.840;2023-02-24T07:10:18;3.00;99.90
64869;DHT22;51349;52.424;10.840;2023-02-24T07:15:19;3.10;99.90
64869;DHT22;51349;52.424;10.840;2023-02-24T07:20:20;3.10;99.90
64869;DHT22;51349;52.424;10.840;2023-02-24T07:25:24;3.10;99.90
64869;DHT22;51349;52.424;10.840;2023-02-24T07:30:45;3.10;99.90
64869;DHT22;51349;52.424;10.840;2023-02-24T07:35:50;3.10;99.90
64869;DHT22;51349;52.424;10.840;2023-02-24T07:40:56;3.20;99.90
64869;DHT22;51349;52.424;10.840;2023-02-24T07:46:11;3.20;99.90
64869;DHT22;51349;52.424;10.840;2023-02-24T07:51:16;3.20;99.90
64869;DHT22;51349;52.424;10.840;2023-02-24T07:56:20;3.20;99.90
64869;DHT22;51349;52.424;10.840;2023-02-24T08:01:31;3.20;99.90
64869;DHT22;51349;52.424;10.840;2023-02-24T08:06:39;3.30;99.90
64869;DHT22;51349;52.424;10.840;2023-02-24T08:11:52;3.30;99.90
64869;DHT22;51349;52.424;10.840;2023-02-24T08:16:54;3.30;99.90
64869;DHT22;51349;52.424;10.840;2023-02-24T08:22:01;3.30;99.90
64869;DHT22;51349;52.424;10.840;2023-02-24T08:27:23;3.30;99.90
64869;DHT22;51349;52.424;10.840;2023-02-24T08:32:34;3.40;99.90
64869;DHT22;51349;52.424;10.840;2023-02-24T08:37:44;3.40;99.90
64869;DHT22;51349;52.424;10.840;2023-02-24T08:42:47;3.40;99.90
64869;DHT22;51349;52.424;10.840;2023-02-24T08:47:49;3.40;99.90
64869;DHT22;51349;52.424;10.840;2023-02-24T08:52:53;3.40;99.90
64869;DHT22;51349;52.424;10.840;2023-02-24T08:57:53;3.40;99.90
64869;DHT22;51349;52.424;10.840;2023-02-24T09:02:55;3.40;99.90
64869;DHT22;51349;52.424;10.840;2023-02-24T09:07:56;3.40;99.90
64869;DHT22;51349;52.424;10.840;2023-02-24T09:12:56;3.40;99.90
64869;DHT22;51349;52.424;10.840;2023-02-24T09:17:57;3.40;99.90
64869;DHT22;51349;52.424;10.840;2023-02-24T09:23:06;3.40;99.90
64869;DHT22;51349;52.424;10.840;2023-02-24T09:33:28;3.20;99.90
64869;DHT22;51349;52.424;10.840;2023-02-24T09:38:29;3.00;99.90
64869;DHT22;51349;52.424;10.840;2023-02-24T09:44:15;2.80;99.90
64869;DHT22;51349;52.424;10.840;2023-02-24T09:49:47;2.80;99.90
64869;DHT22;51349;52.424;10.840;2023-02-24T09:54:49;2.60;99.90
64869;DHT22;51349;52.424;10.840;2023-02-24T10:00:14;2.60;99.90
64869;DHT22;51349;52.424;10.840;2023-02-24T10:05:35;2.50;99.90
64869;DHT22;51349;52.424;10.840;2023-02-24T10:10:37;2.40;99.90
64869;DHT22;51349;52.424;10.840;2023-02-24T10:15:41;2.40;99.90
64869;DHT22;51349;52.424;10.840;2023-02-24T10:21:49;2.30;99.90
64869;DHT22;51349;52.424;10.840;2023-02-24T10:26:57;2.40;99.90
64869;DHT22;51349;52.424;10.840;2023-02-24T10:32:42;2.40;99.90
64869;DHT22;51349;52.424;10.840;2023-02-24T10:37:46;2.40;99.90
64869;DHT22;51349;52.424;10.840;2023-02-24T10:42:48;2.40;99.90
64869;DHT22;51349;52.424;10.840;2023-02-24T10:53:02;2.40;99.90
64869;DHT22;51349;52.424;10.840;2023-02-24T10:58:05;2.30;99.90
64869;DHT22;51349;52.424;10.840;2023-02-24T11:03:09;2.30;99.90
64869;DHT22;51349;52.424;10.840;2023-02-24T11:13:35;2.40;99.90
64869;DHT22;51349;52.424;10.840;2023-02-24T11:18:56;2.50;99.90
64869;DHT22;51349;52.424;10.840;2023-02-24T11:23:58;2.50;99.90
64869;DHT22;51349;52.424;10.840;2023-02-24T11:29:31;2.30;99.90
64869;DHT22;51349;52.424;10.840;2023-02-24T11:34:58;2.20;99.90
64869;DHT22;51349;52.424;10.840;2023-02-24T11:40:17;2.10;99.90
64869;DHT22;51349;52.424;10.840;2023-02-24T11:51:03;2.10;99.90
64869;DHT22;51349;52.424;10.840;2023-02-24T11:56:16;2.10;99.90
64869;DHT22;51349;52.424;10.840;2023-02-24T12:01:32;2.20;99.90
64869;DHT22;51349;52.424;10.840;2023-02-24T12:06:36;2.20;99.90
64869;DHT22;51349;52.424;10.840;2023-02-24T12:16:53;2.20;99.90
64869;DHT22;51349;52.424;10.840;2023-02-24T12:22:04;2.40;99.90
64869;DHT22;51349;52.424;10.840;2023-02-24T12:28:19;2.30;99.90
64869;DHT22;51349;52.424;10.840;2023-02-24T12:33:17;2.40;99.90
64869;DHT22;51349;52.424;10.840;2023-02-24T12:48:57;2.40;99.90
64869;DHT22;51349;52.424;10.840;2023-02-24T12:59:31;2.40;99.90
64869;DHT22;51349;52.424;10.840;2023-02-24T13:04:49;2.40;99.90
64869;DHT22;51349;52.424;10.840;2023-02-24T13:15:23;2.30;99.90
64869;DHT22;51349;52.424;10.840;2023-02-24T13:20:33;2.30;99.90
64869;DHT22;51349;52.424;10.840;2023-02-24T13:25:37;2.50;99.90
64869;DHT22;51349;52.424;10.840;2023-02-24T13:30:43;2.50;99.90
64869;DHT22;51349;52.424;10.840;2023-02-24T13:36:04;2.40;99.90
64869;DHT22;51349;52.424;10.840;2023-02-24T13:46:30;2.40;99.90
64869;DHT22;51349;52.424;10.840;2023-02-24T13:51:38;2.40;99.90
64869;DHT22;51349;52.424;10.840;2023-02-24T13:56:49;2.40;99.90
64869;DHT22;51349;52.424;10.840;2023-02-24T14:07:08;2.50;99.90
64869;DHT22;51349;52.424;10.840;2023-02-24T14:17:23;2.50;99.90
64869;DHT22;51349;52.424;10.840;2023-02-24T14:22:27;2.50;99.90
64869;DHT22;51349;52.424;10.840;2023-02-24T14:27:28;2.50;99.90
64869;DHT22;51349;52.424;10.840;2023-02-24T14:32:29;2.60;99.90
64869;DHT22;51349;52.424;10.840;2023-02-24T14:37:32;2.60;99.90
64869;DHT22;51349;52.424;10.840;2023-02-24T14:42:33;2.50;99.90
64869;DHT22;51349;52.424;10.840;2023-02-24T14:47:39;2.50;99.90
64869;DHT22;51349;52.424;10.840;2023-02-24T14:57:54;2.60;99.90
64869;DHT22;51349;52.424;10.840;2023-02-24T15:03:03;2.60;99.90
64869;DHT22;51349;52.424;10.840;2023-02-24T15:13:41;2.60;99.90
64869;DHT22;51349;52.424;10.840;2023-02-24T15:18:42;2.70;99.90
64869;DHT22;51349;52.424;10.840;2023-02-24T15:23:43;2.80;99.90
64869;DHT22;51349;52.424;10.840;2023-02-24T15:28:56;2.80;99.90
64869;DHT22;51349;52.424;10.840;2023-02-24T15:34:00;2.90;99.90
64869;DHT22;51349;52.424;10.840;2023-02-24T15:39:06;2.90;99.90
64869;DHT22;51349;52.424;10.840;2023-02-24T15:44:31;2.90;99.90
64869;DHT22;51349;52.424;10.840;2023-02-24T15:49:31;3.00;99.90
64869;DHT22;51349;52.424;10.840;2023-02-24T15:54:35;3.00;99.90
64869;DHT22;51349;52.424;10.840;2023-02-24T15:59:38;3.00;99.90
64869;DHT22;51349;52.424;10.840;2023-02-24T16:04:39;3.00;99.90
64869;DHT22;51349;52.424;10.840;2023-02-24T16:09:41;3.00;99.90
64869;DHT22;51349;52.424;10.840;2023-02-24T16:14:43;3.00;99.90
64869;DHT22;51349;52.424;10.840;2023-02-24T16:19:43;3.10;99.90
64869;DHT22;51349;52.424;10.840;2023-02-24T16:24:44;3.10;99.90
64869;DHT22;51349;52.424;10.840;2023-02-24T16:29:45;3.10;99.90
64869;DHT22;51349;52.424;10.840;2023-02-24T16:34:46;3.10;99.90
64869;DHT22;51349;52.424;10.840;2023-02-24T16:39:47;3.20;99.90
64869;DHT22;51349;52.424;10.840;2023-02-24T16:44:49;3.20;99.90
64869;DHT22;51349;52.424;10.840;2023-02-24T16:49:50;3.20;99.90
64869;DHT22;51349;52.424;10.840;2023-02-24T16:54:54;3.20;99.90
64869;DHT22;51349;52.424;10.840;2023-02-24T16:59:55;3.30;99.90
64869;DHT22;51349;52.424;10.840;2023-02-24T17:04:55;3.30;99.90
64869;DHT22;51349;52.424;10.840;2023-02-24T17:09:56;3.40;99.90
64869;DHT22;51349;52.424;10.840;2023-02-24T17:14:56;3.40;99.90
64869;DHT22;51349;52.424;10.840;2023-02-24T17:20:02;3.40;99.90
64869;DHT22;51349;52.424;10.840;2023-02-24T17:25:03;3.40;99.90
64869;DHT22;51349;52.424;10.840;2023-02-24T17:30:04;3.40;99.90
64869;DHT22;51349;52.424;10.840;2023-02-24T17:35:05;3.40;99.90
64869;DHT22;51349;52.424;10.840;2023-02-24T17:40:06;3.50;99.90
64869;DHT22;51349;52.424;10.840;2023-02-24T17:45:09;3.50;99.90
64869;DHT22;51349;52.424;10.840;2023-02-24T17:50:11;3.50;99.90
64869;DHT22;51349;52.424;10.840;2023-02-24T17:55:12;3.50;99.90
64869;DHT22;51349;52.424;10.840;2023-02-24T18:00:13;3.60;99.90
64869;DHT22;51349;52.424;10.840;2023-02-24T18:05:14;3.60;99.90
64869;DHT22;51349;52.424;10.840;2023-02-24T18:10:16;3.60;99.90
64869;DHT22;51349;52.424;10.840;2023-02-24T18:15:16;3.60;99.90
64869;DHT22;51349;52.424;10.840;2023-02-24T18:20:17;3.70;99.90
64869;DHT22;51349;52.424;10.840;2023-02-24T18:25:18;3.60;99.90
64869;DHT22;51349;52.424;10.840;2023-02-24T18:30:18;3.60;99.90
64869;DHT22;51349;52.424;10.840;2023-02-24T18:35:19;3.60;99.90
64869;DHT22;51349;52.424;10.840;2023-02-24T18:40:26;3.60;99.90
64869;DHT22;51349;52.424;10.840;2023-02-24T18:45:27;3.70;99.90
64869;DHT22;51349;52.424;10.840;2023-02-24T18:50:28;3.70;99.90
64869;DHT22;51349;52.424;10.840;2023-02-24T18:55:28;3.70;99.90
64869;DHT22;51349;52.424;10.840;2023-02-24T19:00:29;3.70;99.90
64869;DHT22;51349;52.424;10.840;2023-02-24T19:05:29;3.70;99.90
64869;DHT22;51349;52.424;10.840;2023-02-24T19:10:30;3.70;99.90
64869;DHT22;51349;52.424;10.840;2023-02-24T19:15:34;3.80;99.90
64869;DHT22;51349;52.424;10.840;2023-02-24T19:20:35;3.80;99.90
64869;DHT22;51349;52.424;10.840;2023-02-24T19:25:35;3.80;99.90
64869;DHT22;51349;52.424;10.840;2023-02-24T19:30:40;3.90;99.90
64869;DHT22;51349;52.424;10.840;2023-02-24T19:35:41;3.90;99.90
64869;DHT22;51349;52.424;10.840;2023-02-24T19:40:42;3.90;99.90
64869;DHT22;51349;52.424;10.840;2023-02-24T19:45:43;3.90;99.90
64869;DHT22;51349;52.424;10.840;2023-02-24T19:50:44;3.90;99.90
64869;DHT22;51349;52.424;10.840;2023-02-24T19:55:49;3.80;99.90
64869;DHT22;51349;52.424;10.840;2023-02-24T20:00:49;3.70;99.90
64869;DHT22;51349;52.424;10.840;2023-02-24T20:05:50;3.70;99.90
64869;DHT22;51349;52.424;10.840;2023-02-24T20:11:02;3.80;99.90
64869;DHT22;51349;52.424;10.840;2023-02-24T20:16:07;3.80;99.90
64869;DHT22;51349;52.424;10.840;2023-02-24T20:21:09;3.80;99.90
64869;DHT22;51349;52.424;10.840;2023-02-24T20:26:12;3.80;99.90
64869;DHT22;51349;52.424;10.840;2023-02-24T20:31:17;3.80;99.90
64869;DHT22;51349;52.424;10.840;2023-02-24T20:36:23;3.80;99.90
64869;DHT22;51349;52.424;10.840;2023-02-24T20:41:25;3.80;99.90
64869;DHT22;51349;52.424;10.840;2023-02-24T20:46:30;3.80;99.90
64869;DHT22;51349;52.424;10.840;2023-02-24T20:51:33;3.90;99.90
64869;DHT22;51349;52.424;10.840;2023-02-24T20:56:36;3.90;99.90
64869;DHT22;51349;52.424;10.840;2023-02-24T21:01:37;3.90;99.90
64869;DHT22;51349;52.424;10.840;2023-02-24T21:06:38;3.90;99.90
64869;DHT22;51349;52.424;10.840;2023-02-24T21:11:39;3.90;99.90
64869;DHT22;51349;52.424;10.840;2023-02-24T21:16:40;3.90;99.90
64869;DHT22;51349;52.424;10.840;2023-02-24T21:21:41;3.90;99.90
64869;DHT22;51349;52.424;10.840;2023-02-24T21:26:41;3.90;99.90
64869;DHT22;51349;52.424;10.840;2023-02-24T21:31:42;3.90;99.90
64869;DHT22;51349;52.424;10.840;2023-02-24T21:36:43;3.90;99.90
64869;DHT22;51349;52.424;10.840;2023-02-24T21:41:43;3.80;99.90
64869;DHT22;51349;52.424;10.840;2023-02-24T21:46:44;3.70;99.90
64869;DHT22;51349;52.424;10.840;2023-02-24T21:51:45;3.70;99.90
64869;DHT22;51349;52.424;10.840;2023-02-24T21:56:45;3.80;99.90
64869;DHT22;51349;52.424;10.840;2023-02-24T22:01:46;3.70;99.90
64869;DHT22;51349;52.424;10.840;2023-02-24T22:06:47;3.70;99.90
64869;DHT22;51349;52.424;10.840;2023-02-24T22:11:48;3.80;99.90
64869;DHT22;51349;52.424;10.840;2023-02-24T22:16:49;3.80;99.90
64869;DHT22;51349;52.424;10.840;2023-02-24T22:21:50;3.80;99.90
64869;DHT22;51349;52.424;10.840;2023-02-24T22:26:50;3.70;99.90
64869;DHT22;51349;52.424;10.840;2023-02-24T22:31:51;3.70;99.90
64869;DHT22;51349;52.424;10.840;2023-02-24T22:36:52;3.70;99.90
64869;DHT22;51349;52.424;10.840;2023-02-24T22:41:53;3.70;99.90
64869;DHT22;51349;52.424;10.840;2023-02-24T22:46:54;3.70;99.90
64869;DHT22;51349;52.424;10.840;2023-02-24T22:51:56;3.70;99.90
64869;DHT22;51349;52.424;10.840;2023-02-24T22:56:56;3.80;99.90
64869;DHT22;51349;52.424;10.840;2023-02-24T23:01:57;3.80;99.90
64869;DHT22;51349;52.424;10.840;2023-02-24T23:06:59;3.80;99.90
64869;DHT22;51349;52.424;10.840;2023-02-24T23:11:59;3.80;99.90
64869;DHT22;51349;52.424;10.840;2023-02-24T23:17:00;3.80;99.90
64869;DHT22;51349;52.424;10.840;2023-02-24T23:22:00;3.80;99.90
64869;DHT22;51349;52.424;10.840;2023-02-24T23:27:01;3.80;99.90
64869;DHT22;51349;52.424;10.840;2023-02-24T23:32:02;3.80;99.90
64869;DHT22;51349;52.424;10.840;2023-02-24T23:37:03;3.70;99.90
64869;DHT22;51349;52.424;10.840;2023-02-24T23:42:03;3.70;99.90
64869;DHT22;51349;52.424;10.840;2023-02-24T23:47:04;3.70;99.90
64869;DHT22;51349;52.424;10.840;2023-02-24T23:52:05;3.70;99.90
64869;DHT22;51349;52.424;10.840;2023-02-24T23:57:05;3.70;99.90
